Terminal Aerodrome Forecast
Issued by NWS Cleveland, OH

Home | Current Version | Previous Version | Graphics & Text | Print | Product List | Glossary Off
Versions: 1 2 3 4 5 6 7 8 9 10 11 12 13 14 15 16 17 18 19 20 21 22 23 24 25 26

268
FTUS41 KCLE 191739 AAE
TAFCLE
TAF AMD
KCLE 191739Z 1918/2024 17006KT P6SM VCSH SCT050 BKN070
     FM202100 34006KT P6SM SCT035 BKN050
     FM202300 04004KT P6SM SCT040 BKN070=

USA.gov is the U.S. government's official web portal to all federal, state and local government web resources and services.